Terminal Aerodrome Forecast
Issued by NWS Wilmington, OH

Current Version | Previous Version | Graphics & Text | Print | Product List | Glossary On
Versions: 1 2 3 4 5 6 7 8 9 10 11 12 13 14
000
FTUS41 KILN 200500
TAFCMH
TAF
KCMH 200520Z 2006/2106 05003KT P6SM SCT250
     FM201400 13006KT P6SM FEW250
     FM201800 18008KT P6SM FEW050 SCT250
     FM210000 16003KT P6SM FEW050 BKN250=

USA.gov is the U.S. government's official web portal to all federal, state and local government web resources and services.